Time;durP1;ratioP1;P1;durP2;ratioP2;P2;SDS_P1;SDS_P2;PMS_P1;PMS_P2;Temp;Humidity;BMP_temperature;BMP_pressure;BME280_temperature;BME280_humidity;BME280_pressure;Samples;Min_cycle;Max_cycle;Signal;HPM_P1;HPM_P2
2022/05/19 00:01:59;;;;;;;4.13;3.67;;;24.90;57.40;;;;;;4995666;28;20456;-65
2022/05/19 00:04:27;;;;;;;4.07;3.67;;;24.80;57.50;;;;;;4995729;28;20428;-65
2022/05/19 00:06:54;;;;;;;7.07;3.67;;;24.80;57.70;;;;;;4995887;28;20456;-65
2022/05/19 00:09:22;;;;;;;5.23;3.87;;;24.70;57.70;;;;;;4995438;28;20880;-66
2022/05/19 00:11:49;;;;;;;5.37;3.57;;;24.70;57.80;;;;;;4995894;28;20459;-65
2022/05/19 00:14:16;;;;;;;3.73;3.43;;;24.70;57.90;;;;;;4995665;28;20453;-65
2022/05/19 00:16:44;;;;;;;3.83;3.53;;;24.60;57.90;;;;;;4995362;28;20479;-67
2022/05/19 00:19:13;;;;;;;3.50;3.30;;;24.60;57.90;;;;;;4995683;28;20483;-68
2022/05/19 00:21:40;;;;;;;4.20;3.03;;;24.60;57.90;;;;;;4995653;28;20465;-68
2022/05/19 00:24:08;;;;;;;3.80;3.50;;;24.60;57.80;;;;;;4995311;28;20444;-68
2022/05/19 00:26:35;;;;;;;4.60;3.00;;;24.60;58.00;;;;;;4995307;28;20852;-68
2022/05/19 00:29:02;;;;;;;5.50;3.60;;;24.60;58.10;;;;;;4995421;28;20519;-66
2022/05/19 00:31:29;;;;;;;7.37;3.20;;;24.60;58.30;;;;;;4995461;28;20449;-66
2022/05/19 00:33:56;;;;;;;5.37;4.10;;;24.60;58.20;;;;;;4995519;28;20456;-66
2022/05/19 00:36:24;;;;;;;4.40;3.57;;;24.50;58.10;;;;;;4995532;28;20483;-66
2022/05/19 00:38:51;;;;;;;6.57;3.73;;;24.50;58.00;;;;;;4995193;28;20472;-66
2022/05/19 00:41:18;;;;;;;3.90;3.50;;;24.50;58.00;;;;;;4995057;28;20873;-66
2022/05/19 00:43:47;;;;;;;3.70;3.40;;;24.50;58.00;;;;;;4995227;28;20452;-66
2022/05/19 00:46:21;;;;;;;3.73;3.43;;;24.50;58.20;;;;;;4995096;28;20555;-66
2022/05/19 00:48:52;;;;;;;4.07;3.60;;;24.40;57.80;;;;;;4994660;28;20997;-66
2022/05/19 00:51:25;;;;;;;4.23;3.73;;;24.40;58.00;;;;;;4994758;28;20991;-66
2022/05/19 00:53:57;;;;;;;6.23;4.40;;;24.40;58.30;;;;;;4995059;28;20436;-66
2022/05/19 00:56:27;;;;;;;5.63;3.73;;;24.40;57.70;;;;;;4995046;28;20435;-66
2022/05/19 00:58:59;;;;;;;4.60;4.13;;;24.40;57.70;;;;;;4994920;28;20472;-66
2022/05/19 01:01:26;;;;;;;4.30;3.53;;;24.40;57.90;;;;;;4994619;28;20463;-66
2022/05/19 01:03:58;;;;;;;4.17;3.63;;;24.40;58.00;;;;;;4994907;28;20452;-66
2022/05/19 01:06:27;;;;;;;5.87;3.87;;;24.30;58.10;;;;;;4994940;28;20437;-65
2022/05/19 01:09:00;;;;;;;3.80;3.50;;;24.30;58.40;;;;;;4994302;28;20468;-66
2022/05/19 01:11:27;;;;;;;6.23;3.77;;;24.30;58.70;;;;;;4994716;28;20469;-66
2022/05/19 01:13:53;;;;;;;4.20;3.17;;;24.30;58.80;;;;;;4994438;28;20938;-66
2022/05/19 01:16:20;;;;;;;4.40;3.37;;;24.30;58.60;;;;;;4993704;28;20937;-66
2022/05/19 01:18:48;;;;;;;4.77;3.47;;;24.20;58.80;;;;;;4994527;28;20480;-66
2022/05/19 01:21:19;;;;;;;5.67;3.57;;;24.20;58.80;;;;;;4994547;28;20471;-66
2022/05/19 01:24:03;;;;;;;3.43;3.10;;;24.20;58.60;;;;;;4994617;28;20443;-66
2022/05/19 01:26:54;;;;;;;2.90;2.70;;;24.20;58.50;;;;;;4994598;28;20540;-66
2022/05/19 01:29:25;;;;;;;3.43;3.13;;;24.20;58.70;;;;;;4990906;28;20456;-67
2022/05/19 01:31:54;;;;;;;3.90;3.60;;;24.20;58.80;;;;;;4994457;28;20790;-66
2022/05/19 01:34:23;;;;;;;6.23;3.60;;;24.20;58.80;;;;;;4994355;28;20448;-65
2022/05/19 01:36:50;;;;;;;5.90;3.53;;;24.20;59.00;;;;;;4994311;28;20452;-66
2022/05/19 01:39:20;;;;;;;3.63;3.30;;;24.20;58.90;;;;;;4994337;28;20453;-66
2022/05/19 01:42:09;;;;;;;4.23;3.60;;;24.10;58.70;;;;;;4994428;28;20448;-65
2022/05/19 01:44:47;;;;;;;3.03;2.83;;;24.10;59.00;;;;;;4994387;28;20448;-66
2022/05/19 01:47:19;;;;;;;4.47;3.60;;;24.10;59.10;;;;;;4994002;28;21008;-66
2022/05/19 01:49:53;;;;;;;9.03;3.83;;;24.10;59.00;;;;;;4995017;28;20472;-66
2022/05/19 01:52:25;;;;;;;4.10;3.70;;;24.10;59.10;;;;;;4994641;28;20447;-66
2022/05/19 01:55:00;;;;;;;5.33;3.93;;;24.10;59.20;;;;;;4995424;28;20433;-66
2022/05/19 01:57:32;;;;;;;4.33;3.93;;;24.10;59.30;;;;;;4995247;28;20463;-66
2022/05/19 02:00:07;;;;;;;5.40;3.73;;;24.00;59.40;;;;;;4995339;28;20433;-66
2022/05/19 02:02:41;;;;;;;6.83;3.00;;;24.00;59.40;;;;;;4995445;28;20965;-66
2022/05/19 02:05:16;;;;;;;3.90;3.53;;;24.00;59.40;;;;;;4994648;28;20970;-66
2022/05/19 02:07:46;;;;;;;4.00;3.43;;;24.00;59.50;;;;;;4993763;28;20467;-65
2022/05/19 02:10:16;;;;;;;5.57;3.70;;;24.00;59.50;;;;;;4993742;28;20488;-66
2022/05/19 02:12:46;;;;;;;4.97;3.77;;;24.00;59.50;;;;;;4993992;28;20448;-66
2022/05/19 02:15:17;;;;;;;5.40;3.90;;;24.00;59.50;;;;;;4993955;28;20452;-66
2022/05/19 02:17:46;;;;;;;6.63;3.97;;;23.90;59.60;;;;;;4993613;28;20835;-66
2022/05/19 02:20:16;;;;;;;5.07;4.67;;;23.90;59.70;;;;;;4993936;28;20455;-66
2022/05/19 02:22:44;;;;;;;6.13;4.40;;;23.90;59.80;;;;;;4993852;28;20444;-66
2022/05/19 02:25:16;;;;;;;4.67;4.13;;;23.90;59.90;;;;;;4993547;28;20459;-66
2022/05/19 02:27:49;;;;;;;3.23;3.03;;;23.80;59.80;;;;;;4995309;28;20464;-65
2022/05/19 02:30:19;;;;;;;4.17;3.53;;;23.80;60.00;;;;;;4997740;28;20472;-65
2022/05/19 02:32:46;;;;;;;5.03;4.33;;;23.80;60.40;;;;;;4997736;28;20503;-65
2022/05/19 02:35:15;;;;;;;3.33;3.03;;;23.80;60.60;;;;;;4997685;28;20580;-65
2022/05/19 02:37:41;;;;;;;4.00;3.30;;;23.70;60.60;;;;;;4997410;28;20468;-65
2022/05/19 02:40:10;;;;;;;4.83;3.63;;;23.70;60.50;;;;;;4997567;28;20451;-65
2022/05/19 02:42:38;;;;;;;4.30;3.87;;;23.70;60.70;;;;;;4997518;28;20452;-65
2022/05/19 02:45:07;;;;;;;6.10;4.27;;;23.70;60.90;;;;;;4997515;28;20858;-65
2022/05/19 02:47:34;;;;;;;4.53;4.10;;;23.70;61.00;;;;;;4997381;28;20475;-65
2022/05/19 02:50:01;;;;;;;5.10;3.43;;;23.60;61.10;;;;;;4997283;28;20567;-65
2022/05/19 02:52:28;;;;;;;4.10;3.70;;;23.60;61.20;;;;;;4997250;28;20455;-65
2022/05/19 02:54:55;;;;;;;3.87;3.43;;;23.60;61.20;;;;;;4997371;28;20447;-65
2022/05/19 02:57:21;;;;;;;3.50;3.20;;;23.50;61.40;;;;;;4997147;28;20472;-65
2022/05/19 02:59:48;;;;;;;3.80;3.40;;;23.50;61.70;;;;;;4999671;28;20979;-65
2022/05/19 03:02:16;;;;;;;4.27;3.80;;;23.50;61.90;;;;;;5017306;28;20757;-65
2022/05/19 03:04:43;;;;;;;7.03;3.57;;;23.50;62.00;;;;;;5016609;28;20455;-65
2022/05/19 03:07:09;;;;;;;3.57;3.27;;;23.50;62.00;;;;;;5016614;28;20494;-65
2022/05/19 03:09:36;;;;;;;5.60;4.40;;;23.40;61.90;;;;;;5016517;28;20463;-65
2022/05/19 03:12:04;;;;;;;5.20;3.53;;;23.40;62.10;;;;;;5016179;28;20992;-65
2022/05/19 03:14:31;;;;;;;3.70;3.40;;;23.40;62.20;;;;;;5016447;28;20466;-65
2022/05/19 03:16:58;;;;;;;5.43;3.40;;;23.30;62.30;;;;;;5016371;28;20447;-65
2022/05/19 03:19:26;;;;;;;3.83;3.53;;;23.30;62.80;;;;;;5016407;28;20447;-65
2022/05/19 03:21:52;;;;;;;4.27;3.63;;;23.30;62.80;;;;;;5016448;28;20439;-65
2022/05/19 03:24:19;;;;;;;5.73;3.17;;;23.30;62.90;;;;;;5016407;28;20450;-65
2022/05/19 03:26:46;;;;;;;4.13;3.57;;;23.30;64.10;;;;;;5015978;28;20828;-65
2022/05/19 03:29:13;;;;;;;5.13;4.00;;;23.20;63.40;;;;;;5016400;28;20455;-65
2022/05/19 03:31:40;;;;;;;4.00;3.60;;;23.20;63.60;;;;;;5016216;28;20482;-65
2022/05/19 03:34:07;;;;;;;5.73;4.20;;;23.10;63.50;;;;;;5016225;28;20447;-65
2022/05/19 03:36:35;;;;;;;4.33;3.93;;;23.10;63.80;;;;;;5016175;28;20458;-65
2022/05/19 03:39:02;;;;;;;7.30;4.70;;;23.10;63.80;;;;;;5015221;28;20467;-67
2022/05/19 03:41:28;;;;;;;4.93;4.27;;;23.00;63.90;;;;;;5016128;28;20478;-67
2022/05/19 03:43:55;;;;;;;4.80;3.53;;;23.00;64.20;;;;;;5015693;28;20929;-68
2022/05/19 03:46:22;;;;;;;4.20;3.67;;;23.10;64.30;;;;;;5015855;28;20432;-67
2022/05/19 03:48:49;;;;;;;4.07;3.63;;;23.00;64.20;;;;;;5015838;28;20464;-68
2022/05/19 03:51:22;;;;;;;3.40;3.20;;;23.00;64.30;;;;;;5015749;28;20485;-68
2022/05/19 03:53:50;;;;;;;5.83;3.60;;;23.00;64.40;;;;;;5015855;28;20514;-68
2022/05/19 03:56:17;;;;;;;4.90;3.77;;;23.00;64.30;;;;;;5015711;28;20483;-67
2022/05/19 03:58:44;;;;;;;4.53;4.10;;;23.00;64.20;;;;;;5015595;28;20467;-67
2022/05/19 04:01:11;;;;;;;5.13;3.87;;;23.00;64.20;;;;;;5015343;28;20464;-69
2022/05/19 04:03:38;;;;;;;4.70;4.10;;;23.00;64.30;;;;;;5015599;28;20459;-69
2022/05/19 04:06:04;;;;;;;4.90;4.43;;;23.00;64.50;;;;;;5015235;28;20447;-69
2022/05/19 04:08:31;;;;;;;4.93;4.03;;;23.00;64.50;;;;;;5015415;28;20474;-68
2022/05/19 04:10:59;;;;;;;5.23;4.10;;;23.00;64.50;;;;;;5015374;28;20487;-68
2022/05/19 04:13:26;;;;;;;5.33;4.23;;;23.00;64.50;;;;;;5015399;28;20455;-68
2022/05/19 04:15:53;;;;;;;6.53;4.50;;;23.00;64.50;;;;;;5015355;28;20832;-69
2022/05/19 04:18:20;;;;;;;6.43;4.37;;;23.10;64.60;;;;;;5015245;28;20471;-67
2022/05/19 04:20:47;;;;;;;7.07;3.90;;;23.10;64.40;;;;;;5015027;28;20952;-68
2022/05/19 04:23:14;;;;;;;5.30;4.80;;;23.10;64.10;;;;;;5015233;28;20455;-68
2022/05/19 04:25:41;;;;;;;6.30;3.50;;;23.10;63.80;;;;;;5015174;28;20455;-67
2022/05/19 04:28:10;;;;;;;5.00;3.93;;;23.20;63.90;;;;;;5015182;28;20517;-68
2022/05/19 04:30:37;;;;;;;5.47;4.37;;;23.20;64.00;;;;;;5014717;28;20874;-68
2022/05/19 04:33:04;;;;;;;4.40;4.00;;;23.20;63.60;;;;;;5015043;28;20444;-68
2022/05/19 04:35:31;;;;;;;8.73;3.90;;;23.20;63.10;;;;;;5015053;28;20530;-68
2022/05/19 04:38:00;;;;;;;4.20;3.50;;;23.30;63.20;;;;;;5014864;28;20472;-68
2022/05/19 04:40:27;;;;;;;3.97;3.67;;;23.30;63.60;;;;;;5014644;28;20822;-68
2022/05/19 04:42:54;;;;;;;4.30;3.17;;;23.30;63.60;;;;;;5014548;28;20941;-69
2022/05/19 04:45:22;;;;;;;6.57;4.43;;;23.30;63.60;;;;;;5014522;28;20447;-66
2022/05/19 04:47:49;;;;;;;4.70;3.50;;;23.40;63.50;;;;;;5014668;28;20463;-65
2022/05/19 04:50:16;;;;;;;3.47;3.13;;;23.40;63.30;;;;;;5014375;28;20816;-65
2022/05/19 04:52:43;;;;;;;3.67;3.37;;;23.50;63.30;;;;;;5014155;28;20454;-65
2022/05/19 04:55:10;;;;;;;4.03;3.57;;;23.40;63.10;;;;;;5014396;28;20949;-65
2022/05/19 04:57:38;;;;;;;4.07;3.47;;;23.40;63.00;;;;;;5014742;28;20467;-65
2022/05/19 05:00:07;;;;;;;4.00;3.70;;;23.50;63.40;;;;;;5014900;28;20454;-65
2022/05/19 05:02:35;;;;;;;4.17;3.80;;;23.40;63.50;;;;;;5014571;28;20431;-65
2022/05/19 05:05:02;;;;;;;5.60;4.07;;;23.30;64.50;;;;;;5014472;28;20455;-65
2022/05/19 05:07:29;;;;;;;4.50;4.20;;;23.10;66.00;;;;;;5014422;28;20471;-66
2022/05/19 05:09:56;;;;;;;7.97;4.73;;;23.00;66.00;;;;;;5014388;28;20452;-67
2022/05/19 05:12:22;;;;;;;6.20;5.00;;;22.80;66.40;;;;;;5014049;28;20989;-67
2022/05/19 05:14:49;;;;;;;10.73;5.57;;;22.80;66.80;;;;;;5014416;28;20454;-66
2022/05/19 05:17:16;;;;;;;6.80;4.40;;;22.70;67.20;;;;;;5014149;28;20470;-66
2022/05/19 05:19:44;;;;;;;8.67;4.70;;;22.60;66.30;;;;;;5014213;28;20443;-66
2022/05/19 05:22:12;;;;;;;6.53;3.87;;;22.50;67.60;;;;;;5014247;28;20444;-66
2022/05/19 05:24:39;;;;;;;6.73;4.10;;;22.40;67.60;;;;;;5013882;28;20812;-66
2022/05/19 05:27:06;;;;;;;14.50;5.10;;;22.40;67.80;;;;;;5014202;28;20490;-66
2022/05/19 05:29:33;;;;;;;10.30;3.93;;;22.40;68.80;;;;;;5013872;28;20964;-66
2022/05/19 05:32:00;;;;;;;9.83;3.60;;;22.50;68.60;;;;;;5014249;28;20490;-66
2022/05/19 05:34:27;;;;;;;7.20;4.40;;;22.50;68.10;;;;;;5014087;28;20473;-66
2022/05/19 05:36:56;;;;;;;7.30;3.87;;;22.60;68.40;;;;;;5014654;28;20455;-66
2022/05/19 05:39:22;;;;;;;5.67;3.40;;;22.70;68.00;;;;;;5015532;28;20802;-66
2022/05/19 05:41:49;;;;;;;6.63;3.57;;;22.80;67.70;;;;;;5014415;28;20921;-66
2022/05/19 05:44:16;;;;;;;5.10;3.67;;;22.80;67.40;;;;;;5015273;28;20451;-66
2022/05/19 05:46:44;;;;;;;6.27;4.57;;;22.90;67.30;;;;;;5014770;28;20523;-67
2022/05/19 05:49:11;;;;;;;11.00;3.70;;;22.90;67.60;;;;;;5014702;28;20889;-66
2022/05/19 05:51:38;;;;;;;4.47;3.50;;;23.10;68.10;;;;;;5015063;28;20483;-66
2022/05/19 05:54:06;;;;;;;4.57;3.57;;;23.10;67.30;;;;;;5013835;28;20443;-67
2022/05/19 05:56:33;;;;;;;5.20;3.73;;;23.20;66.90;;;;;;5013755;28;20786;-67
2022/05/19 05:59:00;;;;;;;4.43;3.80;;;23.30;66.30;;;;;;5013615;28;20495;-67
2022/05/19 06:01:27;;;;;;;8.27;3.93;;;23.40;66.10;;;;;;4996810;28;20479;-67
2022/05/19 06:03:53;;;;;;;7.70;4.43;;;23.50;65.70;;;;;;4997555;28;20452;-67
2022/05/19 06:06:20;;;;;;;5.53;3.80;;;23.60;65.70;;;;;;4998255;28;20451;-67
2022/05/19 06:08:47;;;;;;;6.03;4.30;;;23.70;65.80;;;;;;4998014;28;20460;-67
2022/05/19 06:11:15;;;;;;;5.50;3.37;;;23.80;65.60;;;;;;4997980;28;20546;-67
2022/05/19 06:13:42;;;;;;;10.20;4.40;;;23.90;65.20;;;;;;4998104;28;20538;-67
2022/05/19 06:16:09;;;;;;;6.03;4.33;;;24.10;64.90;;;;;;4997723;28;20793;-66
2022/05/19 06:18:36;;;;;;;6.90;4.67;;;24.20;64.40;;;;;;4997965;28;20514;-67
2022/05/19 06:21:03;;;;;;;5.30;3.60;;;24.40;65.20;;;;;;4997944;28;20516;-67
2022/05/19 06:23:30;;;;;;;6.00;4.30;;;24.50;64.40;;;;;;4997913;28;20483;-67
2022/05/19 06:25:57;;;;;;;5.93;3.70;;;24.70;63.70;;;;;;4997888;28;20503;-67
2022/05/19 06:28:25;;;;;;;9.23;4.53;;;24.80;62.80;;;;;;4997402;28;20853;-67
2022/05/19 06:30:52;;;;;;;4.30;3.70;;;24.90;62.10;;;;;;4997669;28;20456;-67
2022/05/19 06:33:20;;;;;;;5.73;4.00;;;25.10;62.10;;;;;;4997439;28;20440;-67
2022/05/19 06:35:47;;;;;;;5.10;3.93;;;25.20;61.50;;;;;;4997725;28;20440;-67
2022/05/19 06:38:14;;;;;;;5.93;4.10;;;25.30;60.90;;;;;;4997523;28;20515;-67
2022/05/19 06:40:41;;;;;;;5.33;3.90;;;25.40;60.20;;;;;;4997633;28;20498;-67
2022/05/19 06:43:10;;;;;;;8.47;4.70;;;25.40;59.50;;;;;;4997157;28;20940;-64
2022/05/19 06:45:38;;;;;;;13.20;4.20;;;25.50;59.20;;;;;;4997417;28;20448;-67
2022/05/19 06:48:06;;;;;;;7.10;3.70;;;25.50;59.00;;;;;;4997357;28;20475;-67
2022/05/19 06:50:33;;;;;;;9.90;5.20;;;25.50;58.80;;;;;;4997386;28;20487;-67
2022/05/19 06:53:03;;;;;;;9.73;4.77;;;25.60;58.80;;;;;;4997352;28;20483;-67
2022/05/19 06:55:31;;;;;;;5.37;4.20;;;25.70;59.10;;;;;;4997393;28;20494;-67
2022/05/19 06:57:58;;;;;;;6.87;4.13;;;25.70;59.10;;;;;;4996918;28;20900;-67
2022/05/19 07:00:27;;;;;;;6.00;4.30;;;25.80;59.10;;;;;;4996974;28;20479;-67
2022/05/19 07:02:58;;;;;;;10.33;4.60;;;25.90;59.10;;;;;;4997105;28;21025;-66
2022/05/19 07:05:26;;;;;;;5.43;4.07;;;26.00;58.90;;;;;;4996926;28;20436;-64
2022/05/19 07:07:53;;;;;;;9.27;4.37;;;26.10;58.50;;;;;;4996993;28;20476;-64
2022/05/19 07:10:23;;;;;;;7.10;4.40;;;26.40;57.80;;;;;;4997018;28;20555;-66
2022/05/19 07:12:51;;;;;;;6.37;3.60;;;26.70;57.50;;;;;;4997002;28;20468;-66
2022/05/19 07:15:19;;;;;;;11.40;4.60;;;27.00;57.10;;;;;;4995992;28;20503;-64
2022/05/19 07:17:47;;;;;;;7.00;3.77;;;27.30;56.50;;;;;;4996883;28;20471;-64
2022/05/19 07:23:08;;;;;;;4.60;4.10;;;27.90;54.70;;;;;;4986438;28;20945;-64
2022/05/19 07:25:35;;;;;;;5.23;3.10;;;28.20;53.90;;;;;;4996777;28;20536;-66
2022/05/19 07:28:02;;;;;;;5.43;3.73;;;28.50;53.20;;;;;;4996533;28;20464;-66
2022/05/19 07:30:29;;;;;;;5.40;3.70;;;28.70;52.10;;;;;;4996663;28;20448;-66
2022/05/19 07:32:56;;;;;;;6.90;3.63;;;28.90;51.30;;;;;;4996493;28;20491;-66
2022/05/19 07:35:25;;;;;;;3.77;3.30;;;29.10;50.70;;;;;;4996511;28;20495;-66
2022/05/19 07:37:52;;;;;;;6.57;3.47;;;29.30;50.10;;;;;;4996168;28;21014;-66
2022/05/19 07:40:19;;;;;;;6.90;4.07;;;29.40;49.70;;;;;;4996420;28;20444;-66
2022/05/19 07:42:46;;;;;;;8.63;4.20;;;29.50;48.80;;;;;;4996475;28;20432;-67
2022/05/19 07:45:15;;;;;;;5.30;3.23;;;29.50;47.30;;;;;;4996374;28;20448;-67
2022/05/19 07:47:42;;;;;;;4.70;4.10;;;29.40;47.00;;;;;;4996261;28;20475;-66
2022/05/19 07:50:10;;;;;;;9.33;4.47;;;29.40;47.20;;;;;;4996382;28;20463;-66
2022/05/19 07:52:38;;;;;;;4.23;3.40;;;29.20;45.90;;;;;;4996177;28;20508;-67
2022/05/19 07:55:07;;;;;;;4.20;3.70;;;28.90;46.40;;;;;;4996298;28;20452;-68
2022/05/19 07:57:34;;;;;;;4.93;3.60;;;28.70;46.80;;;;;;4996105;28;20551;-66
2022/05/19 08:00:00;;;;;;;7.67;3.40;;;28.60;47.30;;;;;;4995966;28;20455;-66
2022/05/19 08:02:27;;;;;;;3.70;3.30;;;28.60;47.90;;;;;;4995868;28;20429;-67
2022/05/19 08:04:54;;;;;;;5.40;3.97;;;28.70;48.30;;;;;;4996056;28;20451;-67
2022/05/19 08:07:21;;;;;;;6.87;4.37;;;28.90;48.50;;;;;;4995641;28;20942;-66
2022/05/19 08:15:36;;;;;;;6.57;4.20;;;29.50;45.90;;;;;;4954821;29;20522;-67
2022/05/19 08:18:05;;;;;;;4.57;4.03;;;29.70;45.60;;;;;;4978485;28;20494;-66
2022/05/19 08:20:34;;;;;;;9.47;4.30;;;29.90;45.70;;;;;;4995751;28;20873;-66
2022/05/19 08:23:01;;;;;;;10.13;4.83;;;29.90;44.30;;;;;;4995400;28;20942;-67
2022/05/19 08:25:29;;;;;;;9.83;4.37;;;30.00;45.10;;;;;;4995137;28;20950;-68
2022/05/19 08:27:57;;;;;;;4.40;3.43;;;30.00;44.40;;;;;;4995453;28;20472;-67
2022/05/19 08:30:25;;;;;;;4.60;3.10;;;30.10;44.60;;;;;;4995609;28;20449;-66
2022/05/19 08:32:51;;;;;;;4.40;3.87;;;30.30;44.70;;;;;;4995462;28;20491;-66
2022/05/19 08:35:19;;;;;;;9.00;4.10;;;30.50;44.30;;;;;;4995466;28;20444;-66
2022/05/19 08:37:46;;;;;;;4.63;4.20;;;30.80;43.50;;;;;;4995063;28;20974;-66
2022/05/19 08:40:13;;;;;;;8.93;4.47;;;30.90;41.60;;;;;;4995379;28;20452;-66
2022/05/19 08:42:47;;;;;;;5.80;4.07;;;31.00;41.20;;;;;;4995308;28;20806;-66
2022/05/19 08:45:20;;;;;;;6.37;3.93;;;31.10;41.60;;;;;;4995311;28;20467;-66
2022/05/19 08:47:56;;;;;;;4.80;3.87;;;31.30;41.70;;;;;;4995186;28;20472;-66
2022/05/19 08:50:38;;;;;;;8.97;4.50;;;31.50;42.70;;;;;;4995249;28;20436;-66
2022/05/19 08:53:06;;;;;;;4.93;4.00;;;31.80;42.80;;;;;;4995098;28;20463;-66
2022/05/19 08:55:33;;;;;;;5.67;4.43;;;32.00;41.30;;;;;;4995129;28;20462;-66
2022/05/19 08:58:12;;;;;;;4.80;4.30;;;32.40;40.60;;;;;;4994983;28;20468;-66
2022/05/19 09:00:46;;;;;;;4.03;3.70;;;32.60;40.10;;;;;;4994852;28;20537;-66
2022/05/19 09:03:20;;;;;;;6.90;4.50;;;32.80;39.20;;;;;;4995044;28;20443;-66
2022/05/19 09:06:18;;;;;;;8.13;4.20;;;33.00;39.00;;;;;;4995046;28;20432;-66
2022/05/19 09:08:59;;;;;;;7.30;4.77;;;33.20;37.80;;;;;;4994446;28;20472;-66
2022/05/19 09:11:31;;;;;;;5.07;4.20;;;33.30;36.70;;;;;;4994938;28;20440;-66
2022/05/19 09:14:04;;;;;;;8.30;5.60;;;33.20;36.60;;;;;;4995034;28;20455;-66
2022/05/19 09:16:33;;;;;;;7.33;5.33;;;33.20;36.50;;;;;;4994930;28;20460;-66
2022/05/19 09:19:06;;;;;;;9.67;6.17;;;33.10;36.30;;;;;;4995050;28;20467;-66
2022/05/19 09:21:34;;;;;;;7.60;5.33;;;33.00;36.50;;;;;;4995680;28;20527;-66
2022/05/19 09:24:00;;;;;;;10.60;5.60;;;32.90;37.00;;;;;;4995758;28;20447;-66
2022/05/19 09:26:39;;;;;;;12.20;5.57;;;32.90;36.90;;;;;;4995843;28;20458;-66
2022/05/19 09:29:09;;;;;;;8.90;5.80;;;32.70;37.10;;;;;;4997094;28;20472;-66
2022/05/19 09:31:39;;;;;;;9.13;5.50;;;32.60;37.10;;;;;;4996657;28;20913;-66
2022/05/19 09:34:07;;;;;;;5.83;4.53;;;32.40;37.10;;;;;;4996290;28;20941;-66
2022/05/19 09:36:40;;;;;;;7.00;4.77;;;32.40;37.70;;;;;;4996433;28;20479;-66
2022/05/19 09:39:12;;;;;;;8.63;4.90;;;32.60;38.60;;;;;;4994193;28;20467;-66
2022/05/19 09:41:43;;;;;;;6.03;5.10;;;32.80;37.80;;;;;;4995031;28;20510;-66
2022/05/19 09:44:15;;;;;;;9.20;5.30;;;33.20;37.50;;;;;;4994544;28;20428;-66
2022/05/19 09:46:47;;;;;;;7.23;4.80;;;33.40;37.10;;;;;;4994437;28;20455;-65
2022/05/19 09:49:26;;;;;;;6.23;4.83;;;33.70;37.20;;;;;;4994134;28;20436;-65
2022/05/19 09:51:53;;;;;;;13.03;5.00;;;34.10;36.80;;;;;;4994305;28;20463;-65
2022/05/19 09:54:22;;;;;;;5.00;4.50;;;34.60;35.50;;;;;;4994224;28;20491;-65
2022/05/19 09:56:51;;;;;;;4.93;4.43;;;35.00;35.20;;;;;;4994287;28;20451;-65
2022/05/19 09:59:23;;;;;;;6.80;4.87;;;35.50;34.10;;;;;;4994208;28;20448;-65
2022/05/19 10:01:52;;;;;;;8.03;4.83;;;35.90;32.00;;;;;;4993890;28;20455;-66
2022/05/19 10:04:20;;;;;;;8.50;5.77;;;36.20;31.70;;;;;;4994167;28;20448;-66
2022/05/19 10:06:52;;;;;;;7.10;5.47;;;36.40;30.00;;;;;;4994156;28;20443;-65
2022/05/19 10:09:21;;;;;;;5.73;5.13;;;36.20;29.80;;;;;;4994087;28;20469;-65
2022/05/19 10:11:50;;;;;;;13.47;5.93;;;35.90;29.90;;;;;;4993846;28;20941;-65
2022/05/19 10:14:21;;;;;;;6.90;5.50;;;35.50;30.30;;;;;;4994124;28;20534;-67
2022/05/19 10:16:59;;;;;;;10.63;6.10;;;35.20;31.40;;;;;;4993680;28;20436;-66
2022/05/19 10:19:39;;;;;;;11.27;7.90;;;35.20;31.30;;;;;;4993752;28;20917;-67
2022/05/19 10:22:30;;;;;;;12.37;6.63;;;35.30;31.10;;;;;;4993622;28;20515;-67
2022/05/19 10:25:16;;;;;;;12.43;6.77;;;35.40;31.40;;;;;;4993970;28;20436;-67
2022/05/19 10:31:06;;;;;;;6.60;5.60;;;35.90;30.70;;;;;;4993860;28;20467;-68
2022/05/19 10:33:43;;;;;;;5.20;4.20;;;36.20;30.40;;;;;;4993543;28;20980;-67
2022/05/19 10:36:18;;;;;;;6.23;4.80;;;36.00;30.00;;;;;;4993624;28;20428;-67
2022/05/19 10:38:52;;;;;;;9.53;5.10;;;35.60;31.10;;;;;;4993742;28;20481;-67
2022/05/19 10:41:41;;;;;;;6.27;4.43;;;35.10;30.90;;;;;;4993904;28;20471;-68
2022/05/19 10:44:50;;;;;;;4.53;4.10;;;34.60;32.10;;;;;;4993830;28;20434;-65
2022/05/19 10:47:28;;;;;;;5.30;4.67;;;34.20;31.40;;;;;;4952705;28;20525;-64
2022/05/19 10:50:08;;;;;;;6.80;4.63;;;33.80;32.20;;;;;;4956246;28;20473;-64
2022/05/19 10:52:50;;;;;;;5.57;4.93;;;33.30;33.20;;;;;;4984210;28;20853;-64
2022/05/19 10:55:24;;;;;;;7.27;4.33;;;33.00;34.70;;;;;;4997416;28;20435;-65
2022/05/19 10:58:15;;;;;;;7.03;3.90;;;33.20;35.10;;;;;;4997328;28;20471;-65
2022/05/19 11:00:57;;;;;;;6.97;4.50;;;33.90;32.80;;;;;;4997165;28;20838;-67
2022/05/19 11:03:56;;;;;;;6.60;4.50;;;34.70;31.60;;;;;;4997433;28;20497;-67
2022/05/19 11:06:54;;;;;;;6.80;4.93;;;35.40;31.70;;;;;;4997857;28;20547;-68
2022/05/19 11:09:32;;;;;;;5.93;4.20;;;36.20;30.50;;;;;;4997280;28;20443;-66
2022/05/19 11:12:10;;;;;;;5.20;3.90;;;37.10;28.80;;;;;;4997114;28;20439;-68
2022/05/19 11:14:50;;;;;;;4.83;3.80;;;37.50;28.10;;;;;;4997117;28;20181;-67
2022/05/19 11:17:27;;;;;;;4.80;3.30;;;37.50;27.80;;;;;;4997040;28;20235;-67
2022/05/19 11:20:00;;;;;;;7.53;4.23;;;37.50;28.00;;;;;;4996665;28;20638;-68
2022/05/19 11:22:33;;;;;;;11.37;4.20;;;37.80;27.30;;;;;;4996937;28;20272;-68
2022/05/19 11:27:54;;;;;;;9.43;3.60;;;38.10;26.90;;;;;;4996505;28;20239;-67
2022/05/19 11:30:25;;;;;;;8.07;4.22;;;38.70;26.00;;;;;;4996732;28;20195;-68
2022/05/19 11:32:57;;;;;;;5.05;3.42;;;39.10;26.10;;;;;;4996711;28;20213;-68
2022/05/19 11:35:28;;;;;;;5.32;3.88;;;39.10;25.70;;;;;;4996406;28;20585;-67
2022/05/19 11:38:02;;;;;;;4.30;3.60;;;38.70;26.30;;;;;;4996595;28;20228;-66
2022/05/19 11:40:35;;;;;;;7.30;3.77;;;38.20;26.80;;;;;;4996526;28;20189;-66
2022/05/19 11:43:09;;;;;;;5.80;3.78;;;37.80;27.40;;;;;;4996525;28;20602;-65
2022/05/19 11:45:41;;;;;;;5.97;4.23;;;37.60;27.70;;;;;;4996565;28;20200;-65
2022/05/19 11:56:50;;;;;;;7.40;4.00;;;37.20;28.60;;;;;;4996098;28;20207;-66
2022/05/19 11:59:17;;;;;;;5.43;4.73;;;37.40;28.50;;;;;;4996217;28;20220;-67
2022/05/19 12:01:50;;;;;;;5.73;4.57;;;37.40;28.10;;;;;;4995077;28;20225;-68
2022/05/19 12:04:24;;;;;;;4.97;4.37;;;37.40;28.70;;;;;;4996165;28;20207;-68
2022/05/19 12:06:56;;;;;;;4.70;3.73;;;37.30;28.70;;;;;;4996039;28;20206;-66
2022/05/19 12:09:30;;;;;;;4.00;3.60;;;37.80;28.90;;;;;;4996064;28;20192;-67
2022/05/19 12:11:59;;;;;;;3.90;3.50;;;38.20;28.10;;;;;;4996029;28;20207;-68
2022/05/19 12:14:40;;;;;;;4.93;3.75;;;38.40;27.40;;;;;;4995920;28;20208;-68
2022/05/19 12:17:15;;;;;;;3.85;3.40;;;38.40;27.70;;;;;;4995387;28;20607;-67
2022/05/19 12:19:44;;;;;;;3.90;3.60;;;38.40;27.20;;;;;;4995879;28;20216;-67
2022/05/19 12:22:17;;;;;;;4.80;3.50;;;38.40;27.10;;;;;;4995754;28;20243;-67
2022/05/19 12:24:55;;;;;;;6.55;3.75;;;39.10;26.50;;;;;;4995907;28;20193;-67
2022/05/19 12:27:24;;;;;;;4.65;4.20;;;39.70;25.80;;;;;;4995372;28;20699;-66
2022/05/19 12:30:00;;;;;;;8.75;3.80;;;39.50;25.70;;;;;;4995648;28;20204;-66
2022/05/19 12:32:29;;;;;;;6.18;4.72;;;38.80;26.40;;;;;;4995271;28;20704;-66
2022/05/19 12:35:02;;;;;;;5.40;4.20;;;37.80;27.70;;;;;;4995537;28;20205;-66
2022/05/19 12:37:43;;;;;;;7.00;4.40;;;37.00;28.30;;;;;;4995350;28;20714;-66
2022/05/19 12:40:28;;;;;;;6.63;4.77;;;36.30;29.80;;;;;;4995496;28;20809;-66
2022/05/19 12:43:20;;;;;;;9.30;4.50;;;35.60;30.60;;;;;;4996186;28;20193;-66
2022/05/19 12:45:49;;;;;;;4.90;4.40;;;35.10;31.40;;;;;;4995718;28;20432;-66
2022/05/19 12:48:25;;;;;;;7.03;4.70;;;34.60;32.30;;;;;;4994777;28;20877;-66
2022/05/19 12:50:53;;;;;;;6.83;5.83;;;34.30;33.50;;;;;;4995150;28;20438;-66
2022/05/19 12:53:40;;;;;;;7.70;6.00;;;34.00;34.50;;;;;;4995291;28;20484;-66
2022/05/19 12:56:10;;;;;;;11.93;5.37;;;33.80;35.60;;;;;;4995117;28;20432;-66
2022/05/19 12:58:50;;;;;;;146.67;13.97;;;33.50;36.50;;;;;;4994791;28;21060;-67
2022/05/19 13:01:22;;;;;;;61.93;6.03;;;31.90;35.50;;;;;;4995047;28;20518;-65
2022/05/19 13:03:54;;;;;;;40.07;4.90;;;30.70;38.10;;;;;;4995212;28;20436;-65
2022/05/19 13:06:24;;;;;;;44.87;6.13;;;29.50;42.20;;;;;;4995279;28;20436;-65
2022/05/19 13:08:54;;;;;;;19.47;3.67;;;28.30;48.70;;;;;;4995378;28;20540;-65
2022/05/19 13:11:25;;;;;;;23.23;4.03;;;27.60;51.40;;;;;;4995729;28;20461;-65
2022/05/19 13:13:56;;;;;;;12.87;2.80;;;27.00;54.80;;;;;;4995469;28;20836;-66
2022/05/19 13:16:26;;;;;;;8.00;3.27;;;26.30;56.60;;;;;;4996445;28;20436;-66
2022/05/19 13:18:56;;;;;;;6.93;2.60;;;25.40;60.60;;;;;;4996356;28;20471;-66
2022/05/19 13:21:26;;;;;;;6.77;3.13;;;24.80;64.80;;;;;;4997346;28;20449;-66
2022/05/19 13:23:54;;;;;;;11.17;3.07;;;24.30;69.50;;;;;;4996795;28;20439;-66
2022/05/19 13:26:26;;;;;;;10.17;2.67;;;24.10;72.40;;;;;;4995046;28;20452;-67